sensor_id;sensor_type;location;lat;lon;timestamp;temperature;humidity
9800;DHT22;4939;52.00085300;4.17406100;2023-08-21T00:01:33;17.90;99.90
9800;DHT22;4939;52.00085300;4.17406100;2023-08-21T00:03:58;17.80;99.90
9800;DHT22;4939;52.00085300;4.17406100;2023-08-21T00:06:24;17.90;99.90
9800;DHT22;4939;52.00085300;4.17406100;2023-08-21T00:08:49;17.80;99.90
9800;DHT22;4939;52.00085300;4.17406100;2023-08-21T00:13:42;17.80;99.90
9800;DHT22;4939;52.00085300;4.17406100;2023-08-21T00:16:13;17.80;99.90
9800;DHT22;4939;52.00085300;4.17406100;2023-08-21T00:18:39;17.80;99.90
9800;DHT22;4939;52.00085300;4.17406100;2023-08-21T00:23:30;17.90;99.90
9800;DHT22;4939;52.00085300;4.17406100;2023-08-21T00:25:57;17.80;99.90
9800;DHT22;4939;52.00085300;4.17406100;2023-08-21T00:28:22;17.80;99.90
9800;DHT22;4939;52.00085300;4.17406100;2023-08-21T00:30:48;17.70;99.90
9800;DHT22;4939;52.00085300;4.17406100;2023-08-21T00:33:14;17.80;99.90
9800;DHT22;4939;52.00085300;4.17406100;2023-08-21T00:35:39;17.70;99.90
9800;DHT22;4939;52.00085300;4.17406100;2023-08-21T00:40:31;17.60;99.90
9800;DHT22;4939;52.00085300;4.17406100;2023-08-21T00:42:57;17.60;99.90
9800;DHT22;4939;52.00085300;4.17406100;2023-08-21T00:45:23;17.60;99.90
9800;DHT22;4939;52.00085300;4.17406100;2023-08-21T00:47:49;17.60;99.90
9800;DHT22;4939;52.00085300;4.17406100;2023-08-21T00:52:45;17.50;99.90
9800;DHT22;4939;52.00085300;4.17406100;2023-08-21T00:55:13;17.50;99.90
9800;DHT22;4939;52.00085300;4.17406100;2023-08-21T01:00:07;17.40;99.90
9800;DHT22;4939;52.00085300;4.17406100;2023-08-21T01:02:36;17.30;99.90
9800;DHT22;4939;52.00085300;4.17406100;2023-08-21T01:05:01;17.40;99.90
9800;DHT22;4939;52.00085300;4.17406100;2023-08-21T01:07:28;17.40;99.90
9800;DHT22;4939;52.00085300;4.17406100;2023-08-21T01:10:15;17.40;99.90
9800;DHT22;4939;52.00085300;4.17406100;2023-08-21T01:12:48;17.30;99.90
9800;DHT22;4939;52.00085300;4.17406100;2023-08-21T01:15:16;17.30;99.90
9800;DHT22;4939;52.00085300;4.17406100;2023-08-21T01:17:42;17.30;99.90
9800;DHT22;4939;52.00085300;4.17406100;2023-08-21T01:20:09;17.40;99.90
9800;DHT22;4939;52.00085300;4.17406100;2023-08-21T01:22:40;17.30;99.90
9800;DHT22;4939;52.00085300;4.17406100;2023-08-21T01:25:07;17.40;99.90
9800;DHT22;4939;52.00085300;4.17406100;2023-08-21T01:27:33;17.40;99.90
9800;DHT22;4939;52.00085300;4.17406100;2023-08-21T01:30:01;17.30;99.90
9800;DHT22;4939;52.00085300;4.17406100;2023-08-21T01:35:20;17.30;99.90
9800;DHT22;4939;52.00085300;4.17406100;2023-08-21T01:37:47;17.30;99.90
9800;DHT22;4939;52.00085300;4.17406100;2023-08-21T01:40:23;17.30;99.90
9800;DHT22;4939;52.00085300;4.17406100;2023-08-21T01:42:49;17.30;99.90
9800;DHT22;4939;52.00085300;4.17406100;2023-08-21T01:45:15;17.20;99.90
9800;DHT22;4939;52.00085300;4.17406100;2023-08-21T01:50:07;17.30;99.90
9800;DHT22;4939;52.00085300;4.17406100;2023-08-21T01:52:33;17.30;99.90
9800;DHT22;4939;52.00085300;4.17406100;2023-08-21T01:54:59;17.30;99.90
9800;DHT22;4939;52.00085300;4.17406100;2023-08-21T01:59:51;17.20;99.90
9800;DHT22;4939;52.00085300;4.17406100;2023-08-21T02:02:16;17.20;99.90
9800;DHT22;4939;52.00085300;4.17406100;2023-08-21T02:04:42;17.20;99.90
9800;DHT22;4939;52.00085300;4.17406100;2023-08-21T02:07:08;17.20;99.90
9800;DHT22;4939;52.00085300;4.17406100;2023-08-21T02:09:33;17.20;99.90
9800;DHT22;4939;52.00085300;4.17406100;2023-08-21T02:11:59;17.40;99.90
9800;DHT22;4939;52.00085300;4.17406100;2023-08-21T02:14:25;17.50;99.90
9800;DHT22;4939;52.00085300;4.17406100;2023-08-21T02:19:17;17.50;99.90
9800;DHT22;4939;52.00085300;4.17406100;2023-08-21T02:21:42;17.50;99.90
9800;DHT22;4939;52.00085300;4.17406100;2023-08-21T02:24:08;17.50;99.90
9800;DHT22;4939;52.00085300;4.17406100;2023-08-21T02:26:33;17.50;99.90
9800;DHT22;4939;52.00085300;4.17406100;2023-08-21T02:28:59;17.60;99.90
9800;DHT22;4939;52.00085300;4.17406100;2023-08-21T02:36:17;17.50;99.90
9800;DHT22;4939;52.00085300;4.17406100;2023-08-21T02:38:42;17.50;99.90
9800;DHT22;4939;52.00085300;4.17406100;2023-08-21T02:41:08;17.40;99.90
9800;DHT22;4939;52.00085300;4.17406100;2023-08-21T02:43:34;17.40;99.90
9800;DHT22;4939;52.00085300;4.17406100;2023-08-21T02:46:00;17.30;99.90
9800;DHT22;4939;52.00085300;4.17406100;2023-08-21T02:50:52;17.20;99.90
9800;DHT22;4939;52.00085300;4.17406100;2023-08-21T02:53:17;17.20;99.90
9800;DHT22;4939;52.00085300;4.17406100;2023-08-21T02:55:43;17.20;99.90
9800;DHT22;4939;52.00085300;4.17406100;2023-08-21T02:58:09;17.10;99.90
9800;DHT22;4939;52.00085300;4.17406100;2023-08-21T03:00:35;17.10;99.90
9800;DHT22;4939;52.00085300;4.17406100;2023-08-21T03:03:01;17.00;99.90
9800;DHT22;4939;52.00085300;4.17406100;2023-08-21T03:05:27;17.10;99.90
9800;DHT22;4939;52.00085300;4.17406100;2023-08-21T03:07:52;17.00;99.90
9800;DHT22;4939;52.00085300;4.17406100;2023-08-21T03:10:18;16.90;99.90
9800;DHT22;4939;52.00085300;4.17406100;2023-08-21T03:17:36;16.90;99.90
9800;DHT22;4939;52.00085300;4.17406100;2023-08-21T03:20:02;16.80;99.90
9800;DHT22;4939;52.00085300;4.17406100;2023-08-21T03:22:30;16.80;99.90
9800;DHT22;4939;52.00085300;4.17406100;2023-08-21T03:24:57;16.80;99.90
9800;DHT22;4939;52.00085300;4.17406100;2023-08-21T03:27:24;16.80;99.90
9800;DHT22;4939;52.00085300;4.17406100;2023-08-21T03:29:50;16.80;99.90
9800;DHT22;4939;52.00085300;4.17406100;2023-08-21T03:32:17;16.80;99.90
9800;DHT22;4939;52.00085300;4.17406100;2023-08-21T03:37:09;16.70;99.90
9800;DHT22;4939;52.00085300;4.17406100;2023-08-21T03:39:35;16.70;99.90
9800;DHT22;4939;52.00085300;4.17406100;2023-08-21T03:42:00;16.70;99.90
9800;DHT22;4939;52.00085300;4.17406100;2023-08-21T03:44:26;16.70;99.90
9800;DHT22;4939;52.00085300;4.17406100;2023-08-21T03:46:52;16.60;99.90
9800;DHT22;4939;52.00085300;4.17406100;2023-08-21T03:49:17;16.60;99.90
9800;DHT22;4939;52.00085300;4.17406100;2023-08-21T03:51:43;16.60;99.90
9800;DHT22;4939;52.00085300;4.17406100;2023-08-21T03:54:09;16.60;99.90
9800;DHT22;4939;52.00085300;4.17406100;2023-08-21T04:06:19;16.60;99.90
9800;DHT22;4939;52.00085300;4.17406100;2023-08-21T04:08:45;16.50;99.90
9800;DHT22;4939;52.00085300;4.17406100;2023-08-21T04:11:10;16.50;99.90
9800;DHT22;4939;52.00085300;4.17406100;2023-08-21T04:13:36;16.50;99.90
9800;DHT22;4939;52.00085300;4.17406100;2023-08-21T04:16:02;16.50;99.90
9800;DHT22;4939;52.00085300;4.17406100;2023-08-21T04:20:53;16.60;99.90
9800;DHT22;4939;52.00085300;4.17406100;2023-08-21T04:23:19;16.60;99.90
9800;DHT22;4939;52.00085300;4.17406100;2023-08-21T04:28:11;16.60;99.90
9800;DHT22;4939;52.00085300;4.17406100;2023-08-21T04:30:40;16.50;99.90
9800;DHT22;4939;52.00085300;4.17406100;2023-08-21T04:35:37;16.50;99.90
9800;DHT22;4939;52.00085300;4.17406100;2023-08-21T04:38:03;16.50;99.90
9800;DHT22;4939;52.00085300;4.17406100;2023-08-21T04:40:28;16.50;99.90
9800;DHT22;4939;52.00085300;4.17406100;2023-08-21T04:45:20;16.40;99.90
9800;DHT22;4939;52.00085300;4.17406100;2023-08-21T04:47:46;16.40;99.90
9800;DHT22;4939;52.00085300;4.17406100;2023-08-21T04:50:12;16.40;99.90
9800;DHT22;4939;52.00085300;4.17406100;2023-08-21T04:52:37;16.40;99.90
9800;DHT22;4939;52.00085300;4.17406100;2023-08-21T04:55:03;16.40;99.90
9800;DHT22;4939;52.00085300;4.17406100;2023-08-21T04:57:29;16.40;99.90
9800;DHT22;4939;52.00085300;4.17406100;2023-08-21T04:59:55;16.40;99.90
9800;DHT22;4939;52.00085300;4.17406100;2023-08-21T05:02:20;16.40;99.90
9800;DHT22;4939;52.00085300;4.17406100;2023-08-21T05:04:46;16.40;99.90
9800;DHT22;4939;52.00085300;4.17406100;2023-08-21T05:09:38;16.40;99.90
9800;DHT22;4939;52.00085300;4.17406100;2023-08-21T05:12:05;16.40;99.90
9800;DHT22;4939;52.00085300;4.17406100;2023-08-21T05:14:31;16.40;99.90
9800;DHT22;4939;52.00085300;4.17406100;2023-08-21T05:16:57;16.40;99.90
9800;DHT22;4939;52.00085300;4.17406100;2023-08-21T05:21:48;16.40;99.90
9800;DHT22;4939;52.00085300;4.17406100;2023-08-21T05:26:44;16.60;99.90
9800;DHT22;4939;52.00085300;4.17406100;2023-08-21T05:29:10;16.70;99.90
9800;DHT22;4939;52.00085300;4.17406100;2023-08-21T05:31:35;16.70;99.90
9800;DHT22;4939;52.00085300;4.17406100;2023-08-21T05:34:01;16.70;99.90
9800;DHT22;4939;52.00085300;4.17406100;2023-08-21T05:36:27;16.80;99.90
9800;DHT22;4939;52.00085300;4.17406100;2023-08-21T05:43:44;17.30;99.90
9800;DHT22;4939;52.00085300;4.17406100;2023-08-21T05:46:11;17.50;99.90
9800;DHT22;4939;52.00085300;4.17406100;2023-08-21T05:48:37;17.60;99.90
9800;DHT22;4939;52.00085300;4.17406100;2023-08-21T05:55:54;18.00;99.90
9800;DHT22;4939;52.00085300;4.17406100;2023-08-21T05:58:20;18.10;99.90
9800;DHT22;4939;52.00085300;4.17406100;2023-08-21T06:00:47;18.20;99.90
9800;DHT22;4939;52.00085300;4.17406100;2023-08-21T06:03:12;18.30;99.90
9800;DHT22;4939;52.00085300;4.17406100;2023-08-21T06:05:38;18.40;99.90
9800;DHT22;4939;52.00085300;4.17406100;2023-08-21T06:10:31;18.70;99.90
9800;DHT22;4939;52.00085300;4.17406100;2023-08-21T06:12:57;18.80;99.90
9800;DHT22;4939;52.00085300;4.17406100;2023-08-21T06:15:22;18.90;99.90
9800;DHT22;4939;52.00085300;4.17406100;2023-08-21T06:17:48;19.10;99.90
9800;DHT22;4939;52.00085300;4.17406100;2023-08-21T06:25:07;19.50;99.90
9800;DHT22;4939;52.00085300;4.17406100;2023-08-21T06:29:59;19.60;99.90
9800;DHT22;4939;52.00085300;4.17406100;2023-08-21T06:32:24;19.70;99.90
9800;DHT22;4939;52.00085300;4.17406100;2023-08-21T06:34:50;19.70;99.90
9800;DHT22;4939;52.00085300;4.17406100;2023-08-21T06:37:15;19.90;99.90
9800;DHT22;4939;52.00085300;4.17406100;2023-08-21T06:39:41;20.00;99.90
9800;DHT22;4939;52.00085300;4.17406100;2023-08-21T06:42:07;20.10;99.90
9800;DHT22;4939;52.00085300;4.17406100;2023-08-21T06:44:32;20.10;99.90
9800;DHT22;4939;52.00085300;4.17406100;2023-08-21T06:49:24;20.40;99.90
9800;DHT22;4939;52.00085300;4.17406100;2023-08-21T06:51:50;20.50;99.90
9800;DHT22;4939;52.00085300;4.17406100;2023-08-21T06:54:15;20.40;99.90
9800;DHT22;4939;52.00085300;4.17406100;2023-08-21T07:01:33;20.50;99.90
9800;DHT22;4939;52.00085300;4.17406100;2023-08-21T07:06:27;20.60;99.90
9800;DHT22;4939;52.00085300;4.17406100;2023-08-21T07:08:53;20.70;99.90
9800;DHT22;4939;52.00085300;4.17406100;2023-08-21T07:11:19;20.70;99.90
9800;DHT22;4939;52.00085300;4.17406100;2023-08-21T07:13:44;20.70;99.90
9800;DHT22;4939;52.00085300;4.17406100;2023-08-21T07:16:10;20.70;99.90
9800;DHT22;4939;52.00085300;4.17406100;2023-08-21T07:18:36;20.80;99.90
9800;DHT22;4939;52.00085300;4.17406100;2023-08-21T07:21:02;20.80;99.90
9800;DHT22;4939;52.00085300;4.17406100;2023-08-21T07:23:31;20.90;99.90
9800;DHT22;4939;52.00085300;4.17406100;2023-08-21T07:25:57;20.90;99.90
9800;DHT22;4939;52.00085300;4.17406100;2023-08-21T07:28:23;21.10;99.90
9800;DHT22;4939;52.00085300;4.17406100;2023-08-21T07:30:57;21.20;99.90
9800;DHT22;4939;52.00085300;4.17406100;2023-08-21T07:33:24;21.20;99.90
9800;DHT22;4939;52.00085300;4.17406100;2023-08-21T07:35:58;21.30;99.90
9800;DHT22;4939;52.00085300;4.17406100;2023-08-21T07:38:23;21.30;99.90
9800;DHT22;4939;52.00085300;4.17406100;2023-08-21T07:40:49;21.40;99.90
9800;DHT22;4939;52.00085300;4.17406100;2023-08-21T07:43:15;21.40;99.90
9800;DHT22;4939;52.00085300;4.17406100;2023-08-21T07:48:06;21.50;99.90
9800;DHT22;4939;52.00085300;4.17406100;2023-08-21T07:50:32;21.50;99.90
9800;DHT22;4939;52.00085300;4.17406100;2023-08-21T07:52:58;21.60;99.90
9800;DHT22;4939;52.00085300;4.17406100;2023-08-21T07:55:23;21.70;99.90
9800;DHT22;4939;52.00085300;4.17406100;2023-08-21T07:57:49;21.70;99.90
9800;DHT22;4939;52.00085300;4.17406100;2023-08-21T08:00:15;21.70;99.90
9800;DHT22;4939;52.00085300;4.17406100;2023-08-21T08:02:40;21.80;99.90
9800;DHT22;4939;52.00085300;4.17406100;2023-08-21T08:05:06;21.90;99.90
9800;DHT22;4939;52.00085300;4.17406100;2023-08-21T08:07:32;21.90;99.90
9800;DHT22;4939;52.00085300;4.17406100;2023-08-21T08:09:57;22.10;99.90
9800;DHT22;4939;52.00085300;4.17406100;2023-08-21T08:12:23;22.10;99.90
9800;DHT22;4939;52.00085300;4.17406100;2023-08-21T08:14:49;22.10;99.90
9800;DHT22;4939;52.00085300;4.17406100;2023-08-21T08:17:14;22.20;99.90
9800;DHT22;4939;52.00085300;4.17406100;2023-08-21T08:19:40;22.20;99.90
9800;DHT22;4939;52.00085300;4.17406100;2023-08-21T08:22:05;22.40;99.90
9800;DHT22;4939;52.00085300;4.17406100;2023-08-21T08:24:31;22.40;99.90
9800;DHT22;4939;52.00085300;4.17406100;2023-08-21T08:31:48;22.40;99.90
9800;DHT22;4939;52.00085300;4.17406100;2023-08-21T08:34:14;22.60;99.90
9800;DHT22;4939;52.00085300;4.17406100;2023-08-21T08:36:40;22.50;99.90
9800;DHT22;4939;52.00085300;4.17406100;2023-08-21T08:39:07;22.50;99.90
9800;DHT22;4939;52.00085300;4.17406100;2023-08-21T08:41:41;22.50;99.90
9800;DHT22;4939;52.00085300;4.17406100;2023-08-21T08:46:33;22.60;99.90
9800;DHT22;4939;52.00085300;4.17406100;2023-08-21T08:49:01;22.60;99.90
9800;DHT22;4939;52.00085300;4.17406100;2023-08-21T08:51:28;22.70;99.90
9800;DHT22;4939;52.00085300;4.17406100;2023-08-21T08:53:56;22.80;99.90
9800;DHT22;4939;52.00085300;4.17406100;2023-08-21T08:58:49;22.80;99.90
9800;DHT22;4939;52.00085300;4.17406100;2023-08-21T09:01:15;22.70;99.90
9800;DHT22;4939;52.00085300;4.17406100;2023-08-21T09:03:40;22.80;99.90
9800;DHT22;4939;52.00085300;4.17406100;2023-08-21T09:08:32;22.90;99.90
9800;DHT22;4939;52.00085300;4.17406100;2023-08-21T09:11:01;23.00;99.90
9800;DHT22;4939;52.00085300;4.17406100;2023-08-21T09:13:30;23.00;99.90
9800;DHT22;4939;52.00085300;4.17406100;2023-08-21T09:15:56;23.10;99.90
9800;DHT22;4939;52.00085300;4.17406100;2023-08-21T09:18:22;23.50;99.90
9800;DHT22;4939;52.00085300;4.17406100;2023-08-21T09:20:49;23.60;99.90
9800;DHT22;4939;52.00085300;4.17406100;2023-08-21T09:23:16;23.70;99.90
9800;DHT22;4939;52.00085300;4.17406100;2023-08-21T09:25:47;24.00;99.90
9800;DHT22;4939;52.00085300;4.17406100;2023-08-21T09:28:13;24.00;99.90
9800;DHT22;4939;52.00085300;4.17406100;2023-08-21T09:30:50;24.00;99.90
9800;DHT22;4939;52.00085300;4.17406100;2023-08-21T09:33:21;24.10;99.90
9800;DHT22;4939;52.00085300;4.17406100;2023-08-21T09:35:48;24.50;99.90
9800;DHT22;4939;52.00085300;4.17406100;2023-08-21T09:38:14;24.40;99.90
9800;DHT22;4939;52.00085300;4.17406100;2023-08-21T09:40:44;24.40;99.90
9800;DHT22;4939;52.00085300;4.17406100;2023-08-21T09:45:46;24.20;99.90
9800;DHT22;4939;52.00085300;4.17406100;2023-08-21T09:48:12;24.30;99.90
9800;DHT22;4939;52.00085300;4.17406100;2023-08-21T09:50:38;24.50;99.90
9800;DHT22;4939;52.00085300;4.17406100;2023-08-21T09:53:06;24.40;99.90
9800;DHT22;4939;52.00085300;4.17406100;2023-08-21T09:55:32;24.40;99.90
9800;DHT22;4939;52.00085300;4.17406100;2023-08-21T09:57:59;24.40;99.90
9800;DHT22;4939;52.00085300;4.17406100;2023-08-21T10:00:33;24.40;99.90
9800;DHT22;4939;52.00085300;4.17406100;2023-08-21T10:03:02;24.40;99.90
9800;DHT22;4939;52.00085300;4.17406100;2023-08-21T10:05:30;24.70;99.90
9800;DHT22;4939;52.00085300;4.17406100;2023-08-21T10:08:00;24.80;99.90
9800;DHT22;4939;52.00085300;4.17406100;2023-08-21T10:10:32;24.60;99.90
9800;DHT22;4939;52.00085300;4.17406100;2023-08-21T10:12:58;24.70;99.90
9800;DHT22;4939;52.00085300;4.17406100;2023-08-21T10:15:25;24.80;99.90
9800;DHT22;4939;52.00085300;4.17406100;2023-08-21T10:17:51;24.70;99.90
9800;DHT22;4939;52.00085300;4.17406100;2023-08-21T10:20:21;24.80;99.90
9800;DHT22;4939;52.00085300;4.17406100;2023-08-21T10:22:53;24.60;99.90
9800;DHT22;4939;52.00085300;4.17406100;2023-08-21T10:25:24;24.60;99.90
9800;DHT22;4939;52.00085300;4.17406100;2023-08-21T10:27:56;24.70;99.90
9800;DHT22;4939;52.00085300;4.17406100;2023-08-21T10:30:27;24.70;99.90
9800;DHT22;4939;52.00085300;4.17406100;2023-08-21T10:32:57;25.00;99.90
9800;DHT22;4939;52.00085300;4.17406100;2023-08-21T10:35:25;24.90;99.90
9800;DHT22;4939;52.00085300;4.17406100;2023-08-21T10:40:32;25.00;99.90
9800;DHT22;4939;52.00085300;4.17406100;2023-08-21T10:42:58;25.10;99.90
9800;DHT22;4939;52.00085300;4.17406100;2023-08-21T10:45:24;25.00;99.90
9800;DHT22;4939;52.00085300;4.17406100;2023-08-21T10:47:50;25.00;99.90
9800;DHT22;4939;52.00085300;4.17406100;2023-08-21T10:50:16;24.90;99.90
9800;DHT22;4939;52.00085300;4.17406100;2023-08-21T10:52:43;25.00;99.90
9800;DHT22;4939;52.00085300;4.17406100;2023-08-21T10:55:17;24.70;99.90
9800;DHT22;4939;52.00085300;4.17406100;2023-08-21T10:57:47;24.90;99.90
9800;DHT22;4939;52.00085300;4.17406100;2023-08-21T11:00:18;24.60;99.90
9800;DHT22;4939;52.00085300;4.17406100;2023-08-21T11:02:45;24.70;99.90
9800;DHT22;4939;52.00085300;4.17406100;2023-08-21T11:05:12;24.70;99.90
9800;DHT22;4939;52.00085300;4.17406100;2023-08-21T11:07:40;24.80;99.90
9800;DHT22;4939;52.00085300;4.17406100;2023-08-21T11:10:08;25.10;99.90
9800;DHT22;4939;52.00085300;4.17406100;2023-08-21T11:12:35;25.10;99.90
9800;DHT22;4939;52.00085300;4.17406100;2023-08-21T11:15:01;25.10;99.90
9800;DHT22;4939;52.00085300;4.17406100;2023-08-21T11:17:27;24.90;99.90
9800;DHT22;4939;52.00085300;4.17406100;2023-08-21T11:19:52;24.90;99.90
9800;DHT22;4939;52.00085300;4.17406100;2023-08-21T11:22:18;24.90;99.90
9800;DHT22;4939;52.00085300;4.17406100;2023-08-21T11:24:45;24.90;99.90
9800;DHT22;4939;52.00085300;4.17406100;2023-08-21T11:27:16;25.10;99.90
9800;DHT22;4939;52.00085300;4.17406100;2023-08-21T11:29:50;24.90;99.90
9800;DHT22;4939;52.00085300;4.17406100;2023-08-21T11:32:18;24.80;99.90
9800;DHT22;4939;52.00085300;4.17406100;2023-08-21T11:34:54;24.90;99.90
9800;DHT22;4939;52.00085300;4.17406100;2023-08-21T11:37:22;24.80;99.90
9800;DHT22;4939;52.00085300;4.17406100;2023-08-21T11:39:52;25.00;99.90
9800;DHT22;4939;52.00085300;4.17406100;2023-08-21T11:42:22;25.10;99.90
9800;DHT22;4939;52.00085300;4.17406100;2023-08-21T11:44:52;24.80;99.90
9800;DHT22;4939;52.00085300;4.17406100;2023-08-21T11:47:20;24.80;99.90
9800;DHT22;4939;52.00085300;4.17406100;2023-08-21T11:49:47;24.70;99.90
9800;DHT22;4939;52.00085300;4.17406100;2023-08-21T11:52:20;24.40;99.90
9800;DHT22;4939;52.00085300;4.17406100;2023-08-21T11:54:49;24.50;99.90
9800;DHT22;4939;52.00085300;4.17406100;2023-08-21T11:57:15;24.40;99.90
9800;DHT22;4939;52.00085300;4.17406100;2023-08-21T11:59:41;24.60;99.90
9800;DHT22;4939;52.00085300;4.17406100;2023-08-21T12:02:13;24.30;99.90
9800;DHT22;4939;52.00085300;4.17406100;2023-08-21T12:04:39;24.20;99.90
9800;DHT22;4939;52.00085300;4.17406100;2023-08-21T12:09:31;24.10;99.90
9800;DHT22;4939;52.00085300;4.17406100;2023-08-21T12:11:57;24.10;99.90
9800;DHT22;4939;52.00085300;4.17406100;2023-08-21T12:14:23;24.00;99.90
9800;DHT22;4939;52.00085300;4.17406100;2023-08-21T12:16:48;24.00;99.90
9800;DHT22;4939;52.00085300;4.17406100;2023-08-21T12:19:14;24.00;99.90
9800;DHT22;4939;52.00085300;4.17406100;2023-08-21T12:21:40;24.10;99.90
9800;DHT22;4939;52.00085300;4.17406100;2023-08-21T12:24:06;24.20;99.90
9800;DHT22;4939;52.00085300;4.17406100;2023-08-21T12:26:33;24.20;99.90
9800;DHT22;4939;52.00085300;4.17406100;2023-08-21T12:29:00;24.20;99.90
9800;DHT22;4939;52.00085300;4.17406100;2023-08-21T12:31:26;24.20;99.90
9800;DHT22;4939;52.00085300;4.17406100;2023-08-21T12:33:51;24.00;99.90
9800;DHT22;4939;52.00085300;4.17406100;2023-08-21T12:36:17;23.90;99.90
9800;DHT22;4939;52.00085300;4.17406100;2023-08-21T12:38:43;23.80;99.90
9800;DHT22;4939;52.00085300;4.17406100;2023-08-21T12:41:08;24.00;99.90
9800;DHT22;4939;52.00085300;4.17406100;2023-08-21T12:43:34;23.90;99.90
9800;DHT22;4939;52.00085300;4.17406100;2023-08-21T12:53:17;24.30;99.90
9800;DHT22;4939;52.00085300;4.17406100;2023-08-21T12:55:43;24.10;99.90
9800;DHT22;4939;52.00085300;4.17406100;2023-08-21T12:58:09;24.10;99.90
9800;DHT22;4939;52.00085300;4.17406100;2023-08-21T13:00:34;24.00;99.90
9800;DHT22;4939;52.00085300;4.17406100;2023-08-21T13:03:00;23.90;99.90
9800;DHT22;4939;52.00085300;4.17406100;2023-08-21T13:07:52;23.90;99.90
9800;DHT22;4939;52.00085300;4.17406100;2023-08-21T13:10:18;24.00;99.90
9800;DHT22;4939;52.00085300;4.17406100;2023-08-21T13:12:43;24.00;99.90
9800;DHT22;4939;52.00085300;4.17406100;2023-08-21T13:15:10;24.00;99.90
9800;DHT22;4939;52.00085300;4.17406100;2023-08-21T13:17:36;24.10;99.90
9800;DHT22;4939;52.00085300;4.17406100;2023-08-21T13:20:02;24.10;99.90
9800;DHT22;4939;52.00085300;4.17406100;2023-08-21T13:22:28;24.00;99.90
9800;DHT22;4939;52.00085300;4.17406100;2023-08-21T13:24:54;24.10;99.90
9800;DHT22;4939;52.00085300;4.17406100;2023-08-21T13:29:46;24.40;99.90
9800;DHT22;4939;52.00085300;4.17406100;2023-08-21T13:32:11;24.50;99.90
9800;DHT22;4939;52.00085300;4.17406100;2023-08-21T13:34:37;24.40;99.90
9800;DHT22;4939;52.00085300;4.17406100;2023-08-21T13:37:03;24.10;99.90
9800;DHT22;4939;52.00085300;4.17406100;2023-08-21T13:39:29;24.30;99.90
9800;DHT22;4939;52.00085300;4.17406100;2023-08-21T13:41:56;24.30;99.90
9800;DHT22;4939;52.00085300;4.17406100;2023-08-21T13:44:21;24.20;99.90
9800;DHT22;4939;52.00085300;4.17406100;2023-08-21T13:46:47;24.20;99.90
9800;DHT22;4939;52.00085300;4.17406100;2023-08-21T13:49:12;24.00;99.90
9800;DHT22;4939;52.00085300;4.17406100;2023-08-21T13:51:38;24.20;99.90
9800;DHT22;4939;52.00085300;4.17406100;2023-08-21T13:54:04;24.40;99.90
9800;DHT22;4939;52.00085300;4.17406100;2023-08-21T13:56:29;24.30;99.90
9800;DHT22;4939;52.00085300;4.17406100;2023-08-21T13:58:56;24.30;99.90
9800;DHT22;4939;52.00085300;4.17406100;2023-08-21T14:01:22;24.40;99.90
9800;DHT22;4939;52.00085300;4.17406100;2023-08-21T14:03:47;24.60;99.90
9800;DHT22;4939;52.00085300;4.17406100;2023-08-21T14:06:13;24.70;99.90
9800;DHT22;4939;52.00085300;4.17406100;2023-08-21T14:08:38;24.50;99.90
9800;DHT22;4939;52.00085300;4.17406100;2023-08-21T14:11:04;24.60;99.90
9800;DHT22;4939;52.00085300;4.17406100;2023-08-21T14:13:30;25.00;99.90
9800;DHT22;4939;52.00085300;4.17406100;2023-08-21T14:15:57;25.00;99.90
9800;DHT22;4939;52.00085300;4.17406100;2023-08-21T14:18:22;25.00;99.90
9800;DHT22;4939;52.00085300;4.17406100;2023-08-21T14:20:48;25.10;99.90
9800;DHT22;4939;52.00085300;4.17406100;2023-08-21T14:23:13;24.90;99.90
9800;DHT22;4939;52.00085300;4.17406100;2023-08-21T14:25:39;24.90;99.90
9800;DHT22;4939;52.00085300;4.17406100;2023-08-21T14:28:05;24.60;99.90
9800;DHT22;4939;52.00085300;4.17406100;2023-08-21T14:30:31;24.70;99.90
9800;DHT22;4939;52.00085300;4.17406100;2023-08-21T14:32:57;24.70;99.90
9800;DHT22;4939;52.00085300;4.17406100;2023-08-21T14:35:23;24.80;99.90
9800;DHT22;4939;52.00085300;4.17406100;2023-08-21T14:37:48;24.90;99.90
9800;DHT22;4939;52.00085300;4.17406100;2023-08-21T14:40:14;25.00;99.90
9800;DHT22;4939;52.00085300;4.17406100;2023-08-21T14:42:40;25.00;99.90
9800;DHT22;4939;52.00085300;4.17406100;2023-08-21T14:45:06;25.10;99.90
9800;DHT22;4939;52.00085300;4.17406100;2023-08-21T14:47:32;25.20;99.90
9800;DHT22;4939;52.00085300;4.17406100;2023-08-21T14:49:58;25.20;99.90
9800;DHT22;4939;52.00085300;4.17406100;2023-08-21T14:52:24;25.00;99.90
9800;DHT22;4939;52.00085300;4.17406100;2023-08-21T14:54:51;25.00;99.90
9800;DHT22;4939;52.00085300;4.17406100;2023-08-21T14:57:16;25.00;99.90
9800;DHT22;4939;52.00085300;4.17406100;2023-08-21T14:59:42;24.80;99.90
9800;DHT22;4939;52.00085300;4.17406100;2023-08-21T15:02:08;24.80;99.90
9800;DHT22;4939;52.00085300;4.17406100;2023-08-21T15:04:33;25.10;99.90
9800;DHT22;4939;52.00085300;4.17406100;2023-08-21T15:06:59;25.20;99.90
9800;DHT22;4939;52.00085300;4.17406100;2023-08-21T15:09:25;25.30;99.90
9800;DHT22;4939;52.00085300;4.17406100;2023-08-21T15:11:50;25.00;99.90
9800;DHT22;4939;52.00085300;4.17406100;2023-08-21T15:16:42;25.10;99.90
9800;DHT22;4939;52.00085300;4.17406100;2023-08-21T15:19:08;24.90;99.90
9800;DHT22;4939;52.00085300;4.17406100;2023-08-21T15:21:33;25.00;99.90
9800;DHT22;4939;52.00085300;4.17406100;2023-08-21T15:26:25;25.00;99.90
9800;DHT22;4939;52.00085300;4.17406100;2023-08-21T15:28:51;25.30;99.90
9800;DHT22;4939;52.00085300;4.17406100;2023-08-21T15:31:16;25.10;99.90
9800;DHT22;4939;52.00085300;4.17406100;2023-08-21T15:33:43;25.00;99.90
9800;DHT22;4939;52.00085300;4.17406100;2023-08-21T15:38:36;25.00;99.90
9800;DHT22;4939;52.00085300;4.17406100;2023-08-21T15:41:02;25.00;99.90
9800;DHT22;4939;52.00085300;4.17406100;2023-08-21T15:43:28;25.10;99.90
9800;DHT22;4939;52.00085300;4.17406100;2023-08-21T15:51:08;24.90;99.90
9800;DHT22;4939;52.00085300;4.17406100;2023-08-21T15:53:37;25.10;99.90
9800;DHT22;4939;52.00085300;4.17406100;2023-08-21T15:56:03;25.00;99.90
9800;DHT22;4939;52.00085300;4.17406100;2023-08-21T15:58:29;24.80;99.90
9800;DHT22;4939;52.00085300;4.17406100;2023-08-21T16:00:57;24.80;99.90
9800;DHT22;4939;52.00085300;4.17406100;2023-08-21T16:03:23;25.10;99.90